createdAt,value
2022-12-20T00:02:02.457Z,18.20
2022-12-20T00:04:32.675Z,17.83
2022-12-20T00:07:02.723Z,19.10
2022-12-20T00:09:32.744Z,18.52
2022-12-20T00:12:03.788Z,18.63
2022-12-20T00:14:34.627Z,19.05
2022-12-20T00:17:04.836Z,20.13
2022-12-20T00:19:34.803Z,24.27
2022-12-20T00:22:04.996Z,18.48
2022-12-20T00:24:35.688Z,20.08
2022-12-20T00:27:06.022Z,17.97
2022-12-20T00:29:36.199Z,18.00
2022-12-20T00:32:06.470Z,19.65
2022-12-20T00:34:36.778Z,19.63
2022-12-20T00:37:06.971Z,18.40
2022-12-20T00:39:37.150Z,18.90
2022-12-20T00:42:08.454Z,18.77
2022-12-20T00:44:38.828Z,18.63
2022-12-20T00:47:09.088Z,18.65
2022-12-20T00:49:39.407Z,18.92
2022-12-20T00:52:09.811Z,19.60
2022-12-20T00:54:39.995Z,18.20
2022-12-20T00:57:10.200Z,17.65
2022-12-20T00:59:40.352Z,18.52
2022-12-20T01:02:11.273Z,18.40
2022-12-20T01:04:41.659Z,19.58
2022-12-20T01:07:13.139Z,17.95
2022-12-20T01:09:43.311Z,18.52
2022-12-20T01:12:13.632Z,18.55
2022-12-20T01:14:44.334Z,18.35
2022-12-20T01:17:14.648Z,16.97
2022-12-20T01:19:45.170Z,18.52
2022-12-20T01:22:15.683Z,17.45
2022-12-20T01:24:45.890Z,17.95
2022-12-20T01:27:16.335Z,18.45
2022-12-20T01:29:46.420Z,18.58
2022-12-20T01:32:16.914Z,19.10
2022-12-20T01:34:47.177Z,17.63
2022-12-20T01:37:17.388Z,17.60
2022-12-20T01:39:47.576Z,18.13
2022-12-20T01:42:18.302Z,17.55
2022-12-20T01:44:48.926Z,18.23
2022-12-20T01:47:19.421Z,18.67
2022-12-20T01:49:53.968Z,18.08
2022-12-20T01:52:35.339Z,17.15
2022-12-20T01:55:19.538Z,17.55
2022-12-20T01:57:59.557Z,17.63
2022-12-20T02:00:31.364Z,17.27
2022-12-20T02:03:05.992Z,24.88
2022-12-20T02:05:39.448Z,20.52
2022-12-20T02:08:12.034Z,19.15
2022-12-20T02:11:16.389Z,18.27
2022-12-20T02:13:59.726Z,17.40
2022-12-20T02:16:35.712Z,19.02
2022-12-20T02:19:33.740Z,17.83
2022-12-20T02:22:21.955Z,18.10
2022-12-20T02:25:13.785Z,17.17
2022-12-20T02:28:15.293Z,17.13
2022-12-20T02:30:49.991Z,15.82
2022-12-20T02:33:22.695Z,17.42
2022-12-20T02:35:52.968Z,16.95
2022-12-20T02:38:36.867Z,15.85
2022-12-20T02:41:16.357Z,16.23
2022-12-20T02:44:08.865Z,16.88
2022-12-20T02:46:40.537Z,15.85
2022-12-20T02:49:17.503Z,16.35
2022-12-20T02:51:51.005Z,15.80
2022-12-20T02:54:22.252Z,17.17
2022-12-20T02:59:31.327Z,14.73
2022-12-20T03:02:02.038Z,15.40
2022-12-20T03:04:37.344Z,15.77
2022-12-20T03:07:13.538Z,15.98
2022-12-20T03:09:46.538Z,14.98
2022-12-20T03:12:18.983Z,15.73
2022-12-20T03:14:49.374Z,15.57
2022-12-20T03:17:20.096Z,15.23
2022-12-20T03:19:50.716Z,15.77
2022-12-20T03:22:21.572Z,17.10
2022-12-20T03:24:52.501Z,15.50
2022-12-20T03:27:22.493Z,16.00
2022-12-20T03:29:52.633Z,15.65
2022-12-20T03:32:23.537Z,15.23
2022-12-20T03:34:53.952Z,16.00
2022-12-20T03:37:31.864Z,14.93
2022-12-20T03:40:03.527Z,16.42
2022-12-20T03:42:34.003Z,15.15
2022-12-20T03:45:04.043Z,15.85
2022-12-20T03:47:34.454Z,14.77
2022-12-20T03:50:05.593Z,13.93
2022-12-20T03:52:38.269Z,15.38
2022-12-20T03:55:09.086Z,14.50
2022-12-20T03:57:44.300Z,15.60
2022-12-20T04:03:25.002Z,13.30
2022-12-20T04:05:55.756Z,15.07
2022-12-20T04:08:25.986Z,13.40
2022-12-20T04:11:14.746Z,13.95
2022-12-20T04:13:53.458Z,13.23
2022-12-20T04:16:28.738Z,13.00
2022-12-20T04:19:00.429Z,12.68
2022-12-20T04:21:38.267Z,14.30
2022-12-20T04:24:10.429Z,14.68
2022-12-20T04:26:48.134Z,13.52
2022-12-20T04:29:19.843Z,13.10
2022-12-20T04:31:51.493Z,14.27
2022-12-20T04:34:22.598Z,13.20
2022-12-20T04:36:52.951Z,13.20
2022-12-20T04:39:33.872Z,12.77
2022-12-20T04:42:26.377Z,12.88
2022-12-20T04:44:58.057Z,13.15
2022-12-20T04:47:31.812Z,13.40
2022-12-20T04:50:02.212Z,13.02
2022-12-20T04:52:50.471Z,12.70
2022-12-20T04:55:21.149Z,13.20
2022-12-20T04:57:51.781Z,12.65
2022-12-20T05:00:23.153Z,13.20
2022-12-20T05:03:02.371Z,13.07
2022-12-20T05:05:34.068Z,12.35
2022-12-20T05:10:34.802Z,12.90
2022-12-20T05:13:09.420Z,12.40
2022-12-20T05:15:46.501Z,13.02
2022-12-20T05:18:16.843Z,12.73
2022-12-20T05:21:14.309Z,13.40
2022-12-20T05:24:05.164Z,13.13
2022-12-20T05:26:43.082Z,13.68
2022-12-20T05:29:13.304Z,12.45
2022-12-20T05:31:43.551Z,12.20
2022-12-20T05:34:13.776Z,12.93
2022-12-20T05:36:46.377Z,13.07
2022-12-20T05:39:18.780Z,12.15
2022-12-20T05:41:50.595Z,13.13
2022-12-20T05:44:24.421Z,13.48
2022-12-20T05:46:59.706Z,12.45
2022-12-20T05:49:33.204Z,11.68
2022-12-20T05:52:05.533Z,12.43
2022-12-20T05:54:37.523Z,11.27
2022-12-20T05:57:22.073Z,10.60
2022-12-20T05:59:52.244Z,11.43
2022-12-20T06:02:26.711Z,11.40
2022-12-20T06:05:04.981Z,11.25
2022-12-20T06:07:35.552Z,10.43
2022-12-20T06:10:06.402Z,10.37
2022-12-20T06:12:50.393Z,10.82
2022-12-20T06:15:21.444Z,10.70
2022-12-20T06:17:51.713Z,11.52
2022-12-20T06:20:22.588Z,10.32
2022-12-20T06:22:55.089Z,11.00
2022-12-20T06:25:26.686Z,10.67
2022-12-20T06:27:58.158Z,10.73
2022-12-20T06:30:33.636Z,10.23
2022-12-20T06:33:15.572Z,10.88
2022-12-20T06:35:45.760Z,10.38
2022-12-20T06:38:16.753Z,11.32
2022-12-20T06:40:47.311Z,10.20
2022-12-20T06:43:17.534Z,9.93
2022-12-20T06:45:49.320Z,10.93
2022-12-20T06:48:19.874Z,11.07
2022-12-20T06:50:56.088Z,11.48
2022-12-20T06:53:28.524Z,11.82
2022-12-20T06:55:58.731Z,11.02
2022-12-20T06:58:29.114Z,11.07
2022-12-20T07:00:59.324Z,10.60
2022-12-20T07:03:29.898Z,10.77
2022-12-20T07:06:00.553Z,10.80
2022-12-20T07:08:30.815Z,10.65
2022-12-20T07:11:07.816Z,11.40
2022-12-20T07:13:38.381Z,10.85
2022-12-20T07:16:09.199Z,11.77
2022-12-20T07:18:39.454Z,10.57
2022-12-20T07:21:09.834Z,10.35
2022-12-20T07:23:39.871Z,10.85
2022-12-20T07:26:10.728Z,11.25
2022-12-20T07:28:44.952Z,10.40
2022-12-20T07:31:15.264Z,11.15
2022-12-20T07:33:45.493Z,11.13
2022-12-20T07:36:21.024Z,11.30
2022-12-20T07:38:51.545Z,11.00
2022-12-20T07:41:21.973Z,10.85
2022-12-20T07:43:51.945Z,11.18
2022-12-20T07:46:22.360Z,10.00
2022-12-20T07:48:52.669Z,10.32
2022-12-20T07:51:38.964Z,10.63
2022-12-20T07:54:21.267Z,10.68
2022-12-20T07:56:57.780Z,10.82
2022-12-20T07:59:33.370Z,10.63
2022-12-20T08:02:05.174Z,11.38
2022-12-20T08:04:37.059Z,10.75
2022-12-20T08:09:42.809Z,10.60
2022-12-20T08:12:16.578Z,11.15
2022-12-20T08:14:47.565Z,11.30
2022-12-20T08:17:17.607Z,9.38
2022-12-20T08:19:47.580Z,10.23
2022-12-20T08:22:17.665Z,11.40
2022-12-20T08:24:48.221Z,10.75
2022-12-20T08:27:18.255Z,9.93
2022-12-20T08:29:49.313Z,10.63
2022-12-20T08:32:19.589Z,10.13
2022-12-20T08:34:50.529Z,10.40
2022-12-20T08:37:20.902Z,10.23
2022-12-20T08:39:50.957Z,10.60
2022-12-20T08:42:20.961Z,10.80
2022-12-20T08:44:50.905Z,10.63
2022-12-20T08:47:20.812Z,10.50
2022-12-20T08:49:50.694Z,9.50
2022-12-20T08:52:20.579Z,10.90
2022-12-20T08:54:50.938Z,10.35
2022-12-20T08:57:20.784Z,10.43
2022-12-20T08:59:50.805Z,10.30
2022-12-20T09:02:20.929Z,10.45
2022-12-20T09:04:51.110Z,11.30
2022-12-20T09:07:22.663Z,10.00
2022-12-20T09:09:52.643Z,10.30
2022-12-20T09:12:24.104Z,11.07
2022-12-20T09:14:54.125Z,10.85
2022-12-20T09:17:24.015Z,10.95
2022-12-20T09:19:54.099Z,10.35
2022-12-20T09:22:24.052Z,10.40
2022-12-20T09:24:53.917Z,11.07
2022-12-20T09:27:24.913Z,10.45
2022-12-20T09:29:55.355Z,11.43
2022-12-20T09:32:25.481Z,10.70
2022-12-20T09:34:55.490Z,11.50
2022-12-20T09:37:25.410Z,11.10
2022-12-20T09:39:55.317Z,11.88
2022-12-20T09:42:31.084Z,11.95
2022-12-20T09:45:10.615Z,12.32
2022-12-20T09:47:41.319Z,12.70
2022-12-20T09:50:19.967Z,12.87
2022-12-20T09:53:16.466Z,14.13
2022-12-20T09:56:27.493Z,14.45
2022-12-20T09:59:06.130Z,13.10
2022-12-20T10:01:40.439Z,12.52
2022-12-20T10:04:20.741Z,13.45
2022-12-20T10:06:57.777Z,13.20
2022-12-20T10:09:58.554Z,14.20
2022-12-20T10:12:47.117Z,13.90
2022-12-20T10:15:27.561Z,14.85
2022-12-20T10:18:06.403Z,14.40
2022-12-20T10:21:30.641Z,15.38
2022-12-20T10:24:06.127Z,14.02
2022-12-20T10:26:36.612Z,15.60
2022-12-20T10:29:06.635Z,14.45
2022-12-20T10:31:38.407Z,15.07
2022-12-20T10:34:09.629Z,14.23
2022-12-20T10:36:40.679Z,14.82
2022-12-20T10:39:12.295Z,16.00
2022-12-20T10:41:45.128Z,17.38
2022-12-20T10:44:20.934Z,19.50
2022-12-20T10:46:56.014Z,18.60
2022-12-20T10:49:39.081Z,18.30
2022-12-20T10:52:11.918Z,17.33
2022-12-20T10:54:44.853Z,15.80
2022-12-20T10:57:28.177Z,16.85
2022-12-20T11:00:07.786Z,17.55
2022-12-20T11:02:44.024Z,16.02
2022-12-20T11:05:14.525Z,16.38
2022-12-20T11:08:34.857Z,15.93
2022-12-20T11:11:22.150Z,15.70
2022-12-20T11:13:53.959Z,15.00
2022-12-20T11:16:29.035Z,15.55
2022-12-20T11:19:28.709Z,13.82
2022-12-20T11:22:10.795Z,14.73
2022-12-20T11:24:52.698Z,14.35
2022-12-20T11:27:28.875Z,15.68
2022-12-20T11:30:15.154Z,14.57
2022-12-20T11:33:27.899Z,14.05
2022-12-20T11:36:07.975Z,13.00
2022-12-20T11:38:52.415Z,13.45
2022-12-20T11:41:40.432Z,13.23
2022-12-20T11:44:29.927Z,14.27
2022-12-20T11:47:11.720Z,14.30
2022-12-20T11:50:15.996Z,12.88
2022-12-20T11:52:54.138Z,13.20
2022-12-20T11:55:31.970Z,13.38
2022-12-20T11:58:20.555Z,13.43
2022-12-20T12:01:16.734Z,14.00
2022-12-20T12:04:07.371Z,13.48
2022-12-20T12:06:43.239Z,13.32
2022-12-20T12:09:35.328Z,13.60
2022-12-20T12:12:42.973Z,12.88
2022-12-20T12:15:18.883Z,13.50
2022-12-20T12:18:08.855Z,13.68
2022-12-20T12:20:47.835Z,14.73
2022-12-20T12:23:31.201Z,14.27
2022-12-20T12:26:09.561Z,13.63
2022-12-20T12:28:39.961Z,13.73
2022-12-20T12:31:19.346Z,14.50
2022-12-20T12:34:03.763Z,13.80
2022-12-20T12:36:49.034Z,14.73
2022-12-20T12:39:40.953Z,15.20
2022-12-20T12:42:16.807Z,14.65
2022-12-20T12:44:59.715Z,13.90
2022-12-20T12:47:52.842Z,15.13
2022-12-20T12:50:44.815Z,17.13
2022-12-20T12:53:17.549Z,15.60
2022-12-20T12:56:07.277Z,18.38
2022-12-20T12:59:14.222Z,560.60
2022-12-20T13:01:54.281Z,120.18
2022-12-20T13:04:57.901Z,174.00
2022-12-20T13:07:35.279Z,21.10
2022-12-20T13:10:32.123Z,24.58
2022-12-20T13:13:04.491Z,33.60
2022-12-20T13:15:34.974Z,24.23
2022-12-20T13:18:24.858Z,22.77
2022-12-20T13:21:34.377Z,22.40
2022-12-20T13:24:39.116Z,22.55
2022-12-20T13:27:26.014Z,20.42
2022-12-20T13:30:01.889Z,22.30
2022-12-20T13:32:50.138Z,23.15
2022-12-20T13:35:31.861Z,22.13
2022-12-20T13:38:14.179Z,25.25
2022-12-20T13:40:49.328Z,28.42
2022-12-20T13:43:22.337Z,761.47
2022-12-20T13:46:07.138Z,25.30
2022-12-20T13:48:49.224Z,25.73
2022-12-20T13:51:30.044Z,26.20
2022-12-20T13:54:08.530Z,22.83
2022-12-20T13:56:50.378Z,21.50
2022-12-20T13:59:31.441Z,22.38
2022-12-20T14:02:05.530Z,20.77
2022-12-20T14:04:49.699Z,25.52
2022-12-20T14:07:21.022Z,20.90
2022-12-20T14:09:59.303Z,20.38
2022-12-20T14:12:36.565Z,21.60
2022-12-20T14:15:36.735Z,21.50
2022-12-20T14:18:29.861Z,20.25
2022-12-20T14:21:07.490Z,21.40
2022-12-20T14:23:51.625Z,22.70
2022-12-20T14:26:27.011Z,22.58
2022-12-20T14:29:09.006Z,22.00
2022-12-20T14:31:45.707Z,24.65
2022-12-20T14:34:25.863Z,21.63
2022-12-20T14:37:23.120Z,21.95
2022-12-20T14:40:05.261Z,21.75
2022-12-20T14:42:38.366Z,22.13
2022-12-20T14:45:19.319Z,22.92
2022-12-20T14:47:57.629Z,22.13
2022-12-20T14:50:38.608Z,23.70
2022-12-20T14:53:22.358Z,22.63
2022-12-20T14:55:52.531Z,23.65
2022-12-20T14:58:34.427Z,23.00
2022-12-20T15:01:18.570Z,22.33
2022-12-20T15:04:00.239Z,24.60
2022-12-20T15:09:25.100Z,24.70
2022-12-20T15:11:58.080Z,24.75
2022-12-20T15:14:39.364Z,24.27
2022-12-20T15:17:14.533Z,23.75
2022-12-20T15:19:45.731Z,22.92
2022-12-20T15:22:19.909Z,24.35
2022-12-20T15:24:50.085Z,22.58
2022-12-20T15:27:20.275Z,25.08
2022-12-20T15:29:50.476Z,23.25
2022-12-20T15:32:31.826Z,24.20
2022-12-20T15:35:01.927Z,24.58
2022-12-20T15:37:31.752Z,25.00
2022-12-20T15:40:01.825Z,25.83
2022-12-20T15:42:31.999Z,25.10
2022-12-20T15:45:02.860Z,27.00
2022-12-20T15:47:32.998Z,25.43
2022-12-20T15:50:03.280Z,25.27
2022-12-20T15:52:35.082Z,25.75
2022-12-20T15:55:05.250Z,26.52
2022-12-20T15:57:36.474Z,25.15
2022-12-20T16:00:08.818Z,26.00
2022-12-20T16:02:42.244Z,25.40
2022-12-20T16:05:16.448Z,25.95
2022-12-20T16:07:47.291Z,26.23
2022-12-20T16:10:17.770Z,27.08
2022-12-20T16:12:48.010Z,27.45
2022-12-20T16:15:24.816Z,27.05
2022-12-20T16:17:55.066Z,26.77
2022-12-20T16:20:24.929Z,26.77
2022-12-20T16:22:54.968Z,25.90
2022-12-20T16:25:31.388Z,26.52
2022-12-20T16:28:01.813Z,26.80
2022-12-20T16:30:32.248Z,25.42
2022-12-20T16:33:02.488Z,25.65
2022-12-20T16:35:35.155Z,26.90
2022-12-20T16:38:05.685Z,26.45
2022-12-20T16:40:37.161Z,25.92
2022-12-20T16:45:36.886Z,28.77
2022-12-20T16:48:07.112Z,25.73
2022-12-20T16:50:43.574Z,28.10
2022-12-20T16:53:17.798Z,26.52
2022-12-20T16:55:48.056Z,26.63
2022-12-20T16:58:18.074Z,26.38
2022-12-20T17:00:48.327Z,26.92
2022-12-20T17:03:20.077Z,26.13
2022-12-20T17:05:50.346Z,25.98
2022-12-20T17:11:06.652Z,27.45
2022-12-20T17:13:36.555Z,26.17
2022-12-20T17:16:06.766Z,27.17
2022-12-20T17:18:36.701Z,27.15
2022-12-20T17:21:32.389Z,27.60
2022-12-20T17:24:02.850Z,27.98
2022-12-20T17:26:33.527Z,26.60
2022-12-20T17:29:03.789Z,27.83
2022-12-20T17:31:45.140Z,28.83
2022-12-20T17:34:31.100Z,27.55
2022-12-20T17:37:01.299Z,28.15
2022-12-20T17:39:31.437Z,27.55
2022-12-20T17:42:03.273Z,27.35
2022-12-20T17:44:33.781Z,28.37
2022-12-20T17:47:03.866Z,28.00
2022-12-20T17:49:33.909Z,27.13
2022-12-20T17:52:03.934Z,28.77
2022-12-20T17:54:39.645Z,27.95
2022-12-20T17:57:19.622Z,29.20
2022-12-20T17:59:49.708Z,27.80
2022-12-20T18:02:26.775Z,27.65
2022-12-20T18:04:57.353Z,30.02
2022-12-20T18:07:27.659Z,27.88
2022-12-20T18:09:57.734Z,31.48
2022-12-20T18:12:29.374Z,31.13
2022-12-20T18:15:04.538Z,30.05
2022-12-20T18:17:34.619Z,30.90
2022-12-20T18:20:05.437Z,31.55
2022-12-20T18:22:37.167Z,30.73
2022-12-20T18:25:10.847Z,30.83
2022-12-20T18:27:44.943Z,31.05
2022-12-20T18:30:15.566Z,29.95
2022-12-20T18:32:47.601Z,30.45
2022-12-20T18:35:17.706Z,29.17
2022-12-20T18:37:47.663Z,29.30
2022-12-20T18:40:17.997Z,29.13
2022-12-20T18:42:48.086Z,29.85
2022-12-20T18:45:18.049Z,29.40
2022-12-20T18:47:47.917Z,30.02
2022-12-20T18:50:18.364Z,32.42
2022-12-20T18:52:49.429Z,29.90
2022-12-20T18:55:19.554Z,30.55
2022-12-20T18:57:50.116Z,28.67
2022-12-20T19:00:20.970Z,31.07
2022-12-20T19:02:51.280Z,29.17
2022-12-20T19:05:21.404Z,30.75
2022-12-20T19:07:51.288Z,33.10
2022-12-20T19:10:21.435Z,29.98
2022-12-20T19:12:51.505Z,31.20
2022-12-20T19:15:21.800Z,30.77
2022-12-20T19:17:53.761Z,30.45
2022-12-20T19:20:24.064Z,29.63
2022-12-20T19:22:56.418Z,32.03
2022-12-20T19:25:26.617Z,32.45
2022-12-20T19:27:56.804Z,32.47
2022-12-20T19:30:26.924Z,32.00
2022-12-20T19:32:57.691Z,31.50
2022-12-20T19:35:55.063Z,30.85
2022-12-20T19:38:17.913Z,31.85
2022-12-20T19:40:55.536Z,30.08
2022-12-20T19:43:27.368Z,31.48
2022-12-20T19:45:59.945Z,31.73
2022-12-20T19:48:31.277Z,31.35
2022-12-20T19:51:14.140Z,30.98
2022-12-20T19:53:46.601Z,33.50
2022-12-20T19:56:19.294Z,31.50
2022-12-20T19:58:49.989Z,30.45
2022-12-20T20:01:25.134Z,29.30
2022-12-20T20:03:59.803Z,31.27
2022-12-20T20:06:30.792Z,32.35
2022-12-20T20:09:01.937Z,38.22
2022-12-20T20:11:32.014Z,34.17
2022-12-20T20:14:04.354Z,36.50
2022-12-20T20:16:34.601Z,47.08
2022-12-20T20:19:04.905Z,39.97
2022-12-20T20:21:37.068Z,53.30
2022-12-20T20:24:07.699Z,95.15
2022-12-20T20:26:37.863Z,206.47
2022-12-20T20:29:09.415Z,226.80
2022-12-20T20:31:40.381Z,269.15
2022-12-20T20:34:11.985Z,330.98
2022-12-20T20:36:42.020Z,403.90
2022-12-20T20:39:11.922Z,387.52
2022-12-20T20:41:42.935Z,416.88
2022-12-20T20:44:15.116Z,446.60
2022-12-20T20:46:45.328Z,443.67
2022-12-20T20:49:15.139Z,449.38
2022-12-20T20:51:45.269Z,438.75
2022-12-20T20:54:15.460Z,446.33
2022-12-20T20:56:45.534Z,250.73
2022-12-20T20:59:17.870Z,345.80
2022-12-20T21:01:48.518Z,321.08
2022-12-20T21:04:18.834Z,167.88
2022-12-20T21:06:49.545Z,290.40
2022-12-20T21:09:19.588Z,332.70
2022-12-20T21:11:50.245Z,330.92
2022-12-20T21:14:43.427Z,392.67
2022-12-20T21:17:10.548Z,430.45
2022-12-20T21:19:40.440Z,408.58
2022-12-20T21:22:10.634Z,432.58
2022-12-20T21:24:40.810Z,417.20
2022-12-20T21:27:10.807Z,434.92
2022-12-20T21:29:40.858Z,425.60
2022-12-20T21:32:10.870Z,66.82
2022-12-20T21:34:40.744Z,111.38
2022-12-20T21:37:10.789Z,253.35
2022-12-20T21:39:43.297Z,308.73
2022-12-20T21:44:42.876Z,374.83
2022-12-20T21:47:13.355Z,405.88
2022-12-20T21:49:43.549Z,394.73
2022-12-20T21:52:15.556Z,412.45
2022-12-20T21:54:45.603Z,450.75
2022-12-20T21:57:15.914Z,458.40
2022-12-20T21:59:46.023Z,436.45
2022-12-20T22:02:16.533Z,443.35
2022-12-20T22:04:46.872Z,451.83
2022-12-20T22:07:17.489Z,403.23
2022-12-20T22:09:47.477Z,430.38
2022-12-20T22:12:19.137Z,438.88
2022-12-20T22:14:49.214Z,300.58
2022-12-20T22:17:19.305Z,431.20
2022-12-20T22:19:49.318Z,446.00
2022-12-20T22:22:20.604Z,457.80
2022-12-20T22:27:20.108Z,447.83
2022-12-20T22:32:21.533Z,28.67
2022-12-20T22:37:24.035Z,30.75
2022-12-20T22:39:54.097Z,28.33
2022-12-20T22:42:24.003Z,28.20
2022-12-20T22:44:53.997Z,29.02
2022-12-20T22:47:23.849Z,28.88
2022-12-20T22:49:53.836Z,29.08
2022-12-20T22:52:23.946Z,29.13
2022-12-20T22:54:53.975Z,29.05
2022-12-20T22:57:24.470Z,29.77
2022-12-20T22:59:55.901Z,31.42
2022-12-20T23:02:27.111Z,31.08
2022-12-20T23:04:57.471Z,35.10
2022-12-20T23:07:27.347Z,32.97
2022-12-20T23:09:57.235Z,35.58
2022-12-20T23:12:45.605Z,34.13
2022-12-20T23:15:35.664Z,36.78
2022-12-20T23:18:05.756Z,34.28
2022-12-20T23:20:53.818Z,31.90
2022-12-20T23:23:23.840Z,32.17
2022-12-20T23:25:53.867Z,31.17
2022-12-20T23:28:23.696Z,31.52
2022-12-20T23:30:54.736Z,31.15
2022-12-20T23:33:24.867Z,32.28
2022-12-20T23:36:02.200Z,33.08
2022-12-20T23:38:39.784Z,33.67
2022-12-20T23:41:12.857Z,33.60
2022-12-20T23:43:42.908Z,33.03
2022-12-20T23:46:15.956Z,32.63
2022-12-20T23:48:46.394Z,31.77
2022-12-20T23:51:16.626Z,33.65
2022-12-20T23:53:47.083Z,35.42
2022-12-20T23:56:19.712Z,33.27
2022-12-20T23:58:55.712Z,32.97
